sensor_id;sensor_type;location;lat;lon;timestamp;P1;durP1;ratioP1;P2;durP2;ratioP2
77359;SDS011;66426;51.454;7.266;2023-03-05T00:00:29;7.55;;;1.80;;
77359;SDS011;66426;51.454;7.266;2023-03-05T00:01:30;3.63;;;1.80;;
77359;SDS011;66426;51.454;7.266;2023-03-05T00:02:34;4.40;;;1.73;;
77359;SDS011;66426;51.454;7.266;2023-03-05T00:03:35;4.45;;;1.83;;
77359;SDS011;66426;51.454;7.266;2023-03-05T00:04:36;8.77;;;2.20;;
77359;SDS011;66426;51.454;7.266;2023-03-05T00:05:36;6.70;;;2.13;;
77359;SDS011;66426;51.454;7.266;2023-03-05T00:06:37;6.43;;;1.90;;
77359;SDS011;66426;51.454;7.266;2023-03-05T00:07:38;4.38;;;1.38;;
77359;SDS011;66426;51.454;7.266;2023-03-05T00:08:40;8.18;;;1.85;;
77359;SDS011;66426;51.454;7.266;2023-03-05T00:09:40;11.15;;;2.03;;
77359;SDS011;66426;51.454;7.266;2023-03-05T00:10:41;6.10;;;2.00;;
77359;SDS011;66426;51.454;7.266;2023-03-05T00:11:42;8.90;;;1.95;;
77359;SDS011;66426;51.454;7.266;2023-03-05T00:12:43;8.38;;;2.10;;
77359;SDS011;66426;51.454;7.266;2023-03-05T00:13:45;7.13;;;1.90;;
77359;SDS011;66426;51.454;7.266;2023-03-05T00:14:46;11.65;;;1.95;;
77359;SDS011;66426;51.454;7.266;2023-03-05T00:15:46;11.07;;;2.05;;
77359;SDS011;66426;51.454;7.266;2023-03-05T00:16:48;4.95;;;1.83;;
77359;SDS011;66426;51.454;7.266;2023-03-05T00:17:48;8.25;;;2.40;;
77359;SDS011;66426;51.454;7.266;2023-03-05T00:18:49;9.02;;;2.20;;
77359;SDS011;66426;51.454;7.266;2023-03-05T00:19:50;7.78;;;1.83;;
77359;SDS011;66426;51.454;7.266;2023-03-05T00:20:50;13.68;;;1.92;;
77359;SDS011;66426;51.454;7.266;2023-03-05T00:21:51;6.95;;;2.10;;
77359;SDS011;66426;51.454;7.266;2023-03-05T00:22:52;6.40;;;1.88;;
77359;SDS011;66426;51.454;7.266;2023-03-05T00:23:53;11.05;;;2.47;;
77359;SDS011;66426;51.454;7.266;2023-03-05T00:24:54;9.27;;;2.40;;
77359;SDS011;66426;51.454;7.266;2023-03-05T00:25:54;10.48;;;2.42;;
77359;SDS011;66426;51.454;7.266;2023-03-05T00:26:55;5.13;;;2.40;;
77359;SDS011;66426;51.454;7.266;2023-03-05T00:27:56;9.20;;;2.60;;
77359;SDS011;66426;51.454;7.266;2023-03-05T00:28:58;8.90;;;2.60;;
77359;SDS011;66426;51.454;7.266;2023-03-05T00:29:59;11.05;;;2.53;;
77359;SDS011;66426;51.454;7.266;2023-03-05T00:30:59;6.40;;;2.30;;
77359;SDS011;66426;51.454;7.266;2023-03-05T00:32:00;9.10;;;2.72;;
77359;SDS011;66426;51.454;7.266;2023-03-05T00:33:01;8.43;;;2.70;;
77359;SDS011;66426;51.454;7.266;2023-03-05T00:34:02;10.93;;;2.80;;
77359;SDS011;66426;51.454;7.266;2023-03-05T00:35:04;5.93;;;2.20;;
77359;SDS011;66426;51.454;7.266;2023-03-05T00:36:05;5.97;;;2.30;;
77359;SDS011;66426;51.454;7.266;2023-03-05T00:37:06;9.43;;;2.80;;
77359;SDS011;66426;51.454;7.266;2023-03-05T00:38:07;9.25;;;2.13;;
77359;SDS011;66426;51.454;7.266;2023-03-05T00:39:07;6.40;;;1.95;;
77359;SDS011;66426;51.454;7.266;2023-03-05T00:40:09;6.82;;;2.58;;
77359;SDS011;66426;51.454;7.266;2023-03-05T00:41:10;7.85;;;3.13;;
77359;SDS011;66426;51.454;7.266;2023-03-05T00:42:10;7.35;;;2.08;;
77359;SDS011;66426;51.454;7.266;2023-03-05T00:43:11;10.55;;;2.78;;
77359;SDS011;66426;51.454;7.266;2023-03-05T00:44:13;9.23;;;2.67;;
77359;SDS011;66426;51.454;7.266;2023-03-05T00:45:14;5.53;;;1.92;;
77359;SDS011;66426;51.454;7.266;2023-03-05T00:46:15;8.40;;;2.58;;
77359;SDS011;66426;51.454;7.266;2023-03-05T00:47:15;8.52;;;2.47;;
77359;SDS011;66426;51.454;7.266;2023-03-05T00:48:17;4.18;;;2.10;;
77359;SDS011;66426;51.454;7.266;2023-03-05T00:49:18;9.68;;;2.17;;
77359;SDS011;66426;51.454;7.266;2023-03-05T00:50:19;6.90;;;2.17;;
77359;SDS011;66426;51.454;7.266;2023-03-05T00:51:20;6.80;;;2.35;;
77359;SDS011;66426;51.454;7.266;2023-03-05T00:52:20;7.05;;;2.63;;
77359;SDS011;66426;51.454;7.266;2023-03-05T00:53:21;6.75;;;2.47;;
77359;SDS011;66426;51.454;7.266;2023-03-05T00:54:22;11.48;;;2.40;;
77359;SDS011;66426;51.454;7.266;2023-03-05T00:55:23;9.60;;;2.80;;
77359;SDS011;66426;51.454;7.266;2023-03-05T00:56:24;7.35;;;2.60;;
77359;SDS011;66426;51.454;7.266;2023-03-05T00:57:25;14.98;;;2.47;;
77359;SDS011;66426;51.454;7.266;2023-03-05T00:58:26;10.95;;;2.20;;
77359;SDS011;66426;51.454;7.266;2023-03-05T00:59:28;10.07;;;2.40;;
77359;SDS011;66426;51.454;7.266;2023-03-05T01:00:28;9.57;;;3.13;;
77359;SDS011;66426;51.454;7.266;2023-03-05T01:01:29;5.53;;;2.30;;
77359;SDS011;66426;51.454;7.266;2023-03-05T01:02:30;5.88;;;2.35;;
77359;SDS011;66426;51.454;7.266;2023-03-05T01:03:31;6.30;;;2.20;;
77359;SDS011;66426;51.454;7.266;2023-03-05T01:04:32;12.95;;;3.28;;
77359;SDS011;66426;51.454;7.266;2023-03-05T01:05:33;6.85;;;2.53;;
77359;SDS011;66426;51.454;7.266;2023-03-05T01:06:34;8.65;;;2.88;;
77359;SDS011;66426;51.454;7.266;2023-03-05T01:07:35;8.88;;;2.55;;
77359;SDS011;66426;51.454;7.266;2023-03-05T01:08:35;8.18;;;2.70;;
77359;SDS011;66426;51.454;7.266;2023-03-05T01:09:36;8.55;;;2.42;;
77359;SDS011;66426;51.454;7.266;2023-03-05T01:10:37;7.32;;;2.38;;
77359;SDS011;66426;51.454;7.266;2023-03-05T01:11:38;7.55;;;2.38;;
77359;SDS011;66426;51.454;7.266;2023-03-05T01:12:39;5.68;;;2.60;;
77359;SDS011;66426;51.454;7.266;2023-03-05T01:13:39;8.75;;;2.92;;
77359;SDS011;66426;51.454;7.266;2023-03-05T01:14:41;7.25;;;2.20;;
77359;SDS011;66426;51.454;7.266;2023-03-05T01:15:42;10.05;;;2.35;;
77359;SDS011;66426;51.454;7.266;2023-03-05T01:16:43;7.35;;;2.58;;
77359;SDS011;66426;51.454;7.266;2023-03-05T01:17:43;10.68;;;2.60;;
77359;SDS011;66426;51.454;7.266;2023-03-05T01:18:44;9.15;;;2.55;;
77359;SDS011;66426;51.454;7.266;2023-03-05T01:19:45;5.72;;;2.78;;
77359;SDS011;66426;51.454;7.266;2023-03-05T01:20:46;11.10;;;3.13;;
77359;SDS011;66426;51.454;7.266;2023-03-05T01:21:47;7.05;;;2.30;;
77359;SDS011;66426;51.454;7.266;2023-03-05T01:22:47;7.05;;;2.40;;
77359;SDS011;66426;51.454;7.266;2023-03-05T01:23:48;6.28;;;2.30;;
77359;SDS011;66426;51.454;7.266;2023-03-05T01:24:49;7.30;;;2.47;;
77359;SDS011;66426;51.454;7.266;2023-03-05T01:25:53;7.70;;;2.60;;
77359;SDS011;66426;51.454;7.266;2023-03-05T01:26:54;6.95;;;2.03;;
77359;SDS011;66426;51.454;7.266;2023-03-05T01:27:54;6.35;;;2.30;;
77359;SDS011;66426;51.454;7.266;2023-03-05T01:28:55;5.13;;;2.03;;
77359;SDS011;66426;51.454;7.266;2023-03-05T01:29:57;8.77;;;2.40;;
77359;SDS011;66426;51.454;7.266;2023-03-05T01:30:58;5.65;;;2.05;;
77359;SDS011;66426;51.454;7.266;2023-03-05T01:31:59;7.35;;;2.03;;
77359;SDS011;66426;51.454;7.266;2023-03-05T01:33:01;4.97;;;2.22;;
77359;SDS011;66426;51.454;7.266;2023-03-05T01:34:02;10.73;;;2.42;;
77359;SDS011;66426;51.454;7.266;2023-03-05T01:35:04;6.43;;;2.00;;
77359;SDS011;66426;51.454;7.266;2023-03-05T01:36:05;5.40;;;2.05;;
77359;SDS011;66426;51.454;7.266;2023-03-05T01:37:06;7.88;;;1.95;;
77359;SDS011;66426;51.454;7.266;2023-03-05T01:38:07;5.50;;;2.05;;
77359;SDS011;66426;51.454;7.266;2023-03-05T01:39:08;6.40;;;2.03;;
77359;SDS011;66426;51.454;7.266;2023-03-05T01:40:10;7.32;;;1.80;;
77359;SDS011;66426;51.454;7.266;2023-03-05T01:41:12;4.63;;;2.03;;
77359;SDS011;66426;51.454;7.266;2023-03-05T01:42:14;8.60;;;2.42;;
77359;SDS011;66426;51.454;7.266;2023-03-05T01:43:20;6.32;;;1.90;;
77359;SDS011;66426;51.454;7.266;2023-03-05T01:44:21;8.48;;;2.75;;
77359;SDS011;66426;51.454;7.266;2023-03-05T01:45:24;5.43;;;2.05;;
77359;SDS011;66426;51.454;7.266;2023-03-05T01:46:26;5.43;;;2.15;;
77359;SDS011;66426;51.454;7.266;2023-03-05T01:47:27;6.63;;;2.40;;
77359;SDS011;66426;51.454;7.266;2023-03-05T01:48:28;6.47;;;2.00;;
77359;SDS011;66426;51.454;7.266;2023-03-05T01:49:29;6.35;;;2.25;;
77359;SDS011;66426;51.454;7.266;2023-03-05T01:50:30;10.15;;;2.20;;
77359;SDS011;66426;51.454;7.266;2023-03-05T01:51:33;6.75;;;2.20;;
77359;SDS011;66426;51.454;7.266;2023-03-05T01:52:35;5.82;;;1.90;;
77359;SDS011;66426;51.454;7.266;2023-03-05T01:53:37;9.32;;;2.30;;
77359;SDS011;66426;51.454;7.266;2023-03-05T01:54:39;3.97;;;2.13;;
77359;SDS011;66426;51.454;7.266;2023-03-05T01:55:41;3.88;;;2.05;;
77359;SDS011;66426;51.454;7.266;2023-03-05T01:56:42;9.20;;;2.30;;
77359;SDS011;66426;51.454;7.266;2023-03-05T01:57:44;5.43;;;1.85;;
77359;SDS011;66426;51.454;7.266;2023-03-05T01:58:45;6.63;;;2.10;;
77359;SDS011;66426;51.454;7.266;2023-03-05T01:59:47;6.38;;;2.05;;
77359;SDS011;66426;51.454;7.266;2023-03-05T02:00:51;4.55;;;2.03;;
77359;SDS011;66426;51.454;7.266;2023-03-05T02:01:54;9.57;;;2.35;;
77359;SDS011;66426;51.454;7.266;2023-03-05T02:02:55;8.15;;;2.72;;
77359;SDS011;66426;51.454;7.266;2023-03-05T02:03:56;7.53;;;2.65;;
77359;SDS011;66426;51.454;7.266;2023-03-05T02:04:58;4.78;;;2.15;;
77359;SDS011;66426;51.454;7.266;2023-03-05T02:06:00;6.53;;;2.08;;
77359;SDS011;66426;51.454;7.266;2023-03-05T02:07:01;7.75;;;2.72;;
77359;SDS011;66426;51.454;7.266;2023-03-05T02:08:03;6.85;;;2.03;;
77359;SDS011;66426;51.454;7.266;2023-03-05T02:09:04;7.97;;;2.83;;
77359;SDS011;66426;51.454;7.266;2023-03-05T02:10:13;8.63;;;2.45;;
77359;SDS011;66426;51.454;7.266;2023-03-05T02:11:14;8.75;;;2.20;;
77359;SDS011;66426;51.454;7.266;2023-03-05T02:12:14;7.88;;;2.47;;
77359;SDS011;66426;51.454;7.266;2023-03-05T02:13:16;6.30;;;2.00;;
77359;SDS011;66426;51.454;7.266;2023-03-05T02:14:17;10.45;;;2.30;;
77359;SDS011;66426;51.454;7.266;2023-03-05T02:15:20;5.13;;;2.38;;
77359;SDS011;66426;51.454;7.266;2023-03-05T02:16:22;7.55;;;2.20;;
77359;SDS011;66426;51.454;7.266;2023-03-05T02:17:25;8.50;;;2.33;;
77359;SDS011;66426;51.454;7.266;2023-03-05T02:18:26;9.32;;;2.08;;
77359;SDS011;66426;51.454;7.266;2023-03-05T02:19:27;8.45;;;2.30;;
77359;SDS011;66426;51.454;7.266;2023-03-05T02:20:29;4.90;;;2.10;;
77359;SDS011;66426;51.454;7.266;2023-03-05T02:21:36;9.57;;;2.40;;
77359;SDS011;66426;51.454;7.266;2023-03-05T02:22:37;7.28;;;2.40;;
77359;SDS011;66426;51.454;7.266;2023-03-05T02:23:38;4.93;;;2.35;;
77359;SDS011;66426;51.454;7.266;2023-03-05T02:24:38;4.05;;;2.10;;
77359;SDS011;66426;51.454;7.266;2023-03-05T02:25:39;8.02;;;2.60;;
77359;SDS011;66426;51.454;7.266;2023-03-05T02:26:40;6.00;;;2.15;;
77359;SDS011;66426;51.454;7.266;2023-03-05T02:27:43;4.90;;;2.22;;
77359;SDS011;66426;51.454;7.266;2023-03-05T02:28:46;6.28;;;2.20;;
77359;SDS011;66426;51.454;7.266;2023-03-05T02:29:48;6.65;;;2.30;;
77359;SDS011;66426;51.454;7.266;2023-03-05T02:30:49;9.80;;;2.40;;
77359;SDS011;66426;51.454;7.266;2023-03-05T02:31:50;6.55;;;2.40;;
77359;SDS011;66426;51.454;7.266;2023-03-05T02:32:51;4.95;;;2.00;;
77359;SDS011;66426;51.454;7.266;2023-03-05T02:33:52;5.57;;;2.20;;
77359;SDS011;66426;51.454;7.266;2023-03-05T02:34:53;8.68;;;2.05;;
77359;SDS011;66426;51.454;7.266;2023-03-05T02:35:54;3.83;;;2.35;;
77359;SDS011;66426;51.454;7.266;2023-03-05T02:36:56;8.27;;;2.25;;
77359;SDS011;66426;51.454;7.266;2023-03-05T02:37:56;5.53;;;1.90;;
77359;SDS011;66426;51.454;7.266;2023-03-05T02:38:57;3.38;;;1.92;;
77359;SDS011;66426;51.454;7.266;2023-03-05T02:39:58;5.32;;;1.90;;
77359;SDS011;66426;51.454;7.266;2023-03-05T02:40:59;3.53;;;2.08;;
77359;SDS011;66426;51.454;7.266;2023-03-05T02:42:00;6.20;;;1.80;;
77359;SDS011;66426;51.454;7.266;2023-03-05T02:43:00;6.57;;;2.33;;
77359;SDS011;66426;51.454;7.266;2023-03-05T02:44:01;6.15;;;2.10;;
77359;SDS011;66426;51.454;7.266;2023-03-05T02:45:02;4.25;;;1.80;;
77359;SDS011;66426;51.454;7.266;2023-03-05T02:46:04;7.15;;;1.88;;
77359;SDS011;66426;51.454;7.266;2023-03-05T02:47:04;2.83;;;1.40;;
77359;SDS011;66426;51.454;7.266;2023-03-05T02:48:06;5.70;;;1.85;;
77359;SDS011;66426;51.454;7.266;2023-03-05T02:49:07;5.63;;;1.70;;
77359;SDS011;66426;51.454;7.266;2023-03-05T02:50:08;4.22;;;1.58;;
77359;SDS011;66426;51.454;7.266;2023-03-05T02:51:09;5.18;;;1.67;;
77359;SDS011;66426;51.454;7.266;2023-03-05T02:52:11;4.63;;;1.90;;
77359;SDS011;66426;51.454;7.266;2023-03-05T02:53:12;2.17;;;1.40;;
77359;SDS011;66426;51.454;7.266;2023-03-05T02:54:13;7.72;;;1.73;;
77359;SDS011;66426;51.454;7.266;2023-03-05T02:55:14;4.53;;;1.48;;
77359;SDS011;66426;51.454;7.266;2023-03-05T02:56:14;4.55;;;1.52;;
77359;SDS011;66426;51.454;7.266;2023-03-05T02:57:15;5.38;;;1.67;;
77359;SDS011;66426;51.454;7.266;2023-03-05T02:58:16;4.47;;;1.90;;
77359;SDS011;66426;51.454;7.266;2023-03-05T02:59:17;3.97;;;1.90;;
77359;SDS011;66426;51.454;7.266;2023-03-05T03:00:18;7.70;;;1.85;;
77359;SDS011;66426;51.454;7.266;2023-03-05T03:01:18;3.50;;;1.60;;
77359;SDS011;66426;51.454;7.266;2023-03-05T03:02:19;7.15;;;1.67;;
77359;SDS011;66426;51.454;7.266;2023-03-05T03:03:20;7.38;;;1.70;;
77359;SDS011;66426;51.454;7.266;2023-03-05T03:04:21;7.28;;;2.03;;
77359;SDS011;66426;51.454;7.266;2023-03-05T03:05:21;4.28;;;1.48;;
77359;SDS011;66426;51.454;7.266;2023-03-05T03:06:22;6.07;;;1.55;;
77359;SDS011;66426;51.454;7.266;2023-03-05T03:07:24;5.63;;;1.63;;
77359;SDS011;66426;51.454;7.266;2023-03-05T03:08:25;5.32;;;1.60;;
77359;SDS011;66426;51.454;7.266;2023-03-05T03:09:25;7.70;;;1.73;;
77359;SDS011;66426;51.454;7.266;2023-03-05T03:10:26;3.30;;;1.40;;
77359;SDS011;66426;51.454;7.266;2023-03-05T03:11:27;4.88;;;1.77;;
77359;SDS011;66426;51.454;7.266;2023-03-05T03:12:28;5.13;;;1.80;;
77359;SDS011;66426;51.454;7.266;2023-03-05T03:13:28;5.95;;;1.58;;
77359;SDS011;66426;51.454;7.266;2023-03-05T03:14:30;4.35;;;1.40;;
77359;SDS011;66426;51.454;7.266;2023-03-05T03:15:30;6.70;;;1.63;;
77359;SDS011;66426;51.454;7.266;2023-03-05T03:16:32;3.17;;;1.50;;
77359;SDS011;66426;51.454;7.266;2023-03-05T03:17:33;4.22;;;1.50;;
77359;SDS011;66426;51.454;7.266;2023-03-05T03:18:34;3.63;;;1.40;;
77359;SDS011;66426;51.454;7.266;2023-03-05T03:19:35;4.03;;;1.80;;
77359;SDS011;66426;51.454;7.266;2023-03-05T03:20:36;4.88;;;1.75;;
77359;SDS011;66426;51.454;7.266;2023-03-05T03:21:38;5.05;;;1.60;;
77359;SDS011;66426;51.454;7.266;2023-03-05T03:22:40;4.53;;;1.65;;
77359;SDS011;66426;51.454;7.266;2023-03-05T03:23:41;7.25;;;1.80;;
77359;SDS011;66426;51.454;7.266;2023-03-05T03:24:42;9.48;;;2.10;;
77359;SDS011;66426;51.454;7.266;2023-03-05T03:25:43;5.45;;;1.63;;
77359;SDS011;66426;51.454;7.266;2023-03-05T03:26:44;6.72;;;1.92;;
77359;SDS011;66426;51.454;7.266;2023-03-05T03:27:44;2.85;;;1.30;;
77359;SDS011;66426;51.454;7.266;2023-03-05T03:28:45;7.32;;;1.92;;
77359;SDS011;66426;51.454;7.266;2023-03-05T03:29:46;3.17;;;1.45;;
77359;SDS011;66426;51.454;7.266;2023-03-05T03:30:47;5.13;;;1.75;;
77359;SDS011;66426;51.454;7.266;2023-03-05T03:31:48;8.25;;;2.05;;
77359;SDS011;66426;51.454;7.266;2023-03-05T03:32:49;5.95;;;1.90;;
77359;SDS011;66426;51.454;7.266;2023-03-05T03:33:50;4.57;;;1.67;;
77359;SDS011;66426;51.454;7.266;2023-03-05T03:34:51;5.65;;;2.05;;
77359;SDS011;66426;51.454;7.266;2023-03-05T03:35:51;5.85;;;2.05;;
77359;SDS011;66426;51.454;7.266;2023-03-05T03:36:52;5.53;;;2.00;;
77359;SDS011;66426;51.454;7.266;2023-03-05T03:37:55;11.90;;;2.67;;
77359;SDS011;66426;51.454;7.266;2023-03-05T03:38:55;4.05;;;1.92;;
77359;SDS011;66426;51.454;7.266;2023-03-05T03:39:56;5.22;;;1.98;;
77359;SDS011;66426;51.454;7.266;2023-03-05T03:40:57;5.32;;;2.15;;
77359;SDS011;66426;51.454;7.266;2023-03-05T03:41:58;6.22;;;2.38;;
77359;SDS011;66426;51.454;7.266;2023-03-05T03:42:58;11.18;;;2.67;;
77359;SDS011;66426;51.454;7.266;2023-03-05T03:43:59;6.40;;;2.20;;
77359;SDS011;66426;51.454;7.266;2023-03-05T03:45:02;8.95;;;2.55;;
77359;SDS011;66426;51.454;7.266;2023-03-05T03:46:03;7.00;;;2.45;;
77359;SDS011;66426;51.454;7.266;2023-03-05T03:47:04;4.43;;;2.20;;
77359;SDS011;66426;51.454;7.266;2023-03-05T03:48:05;5.40;;;2.28;;
77359;SDS011;66426;51.454;7.266;2023-03-05T03:49:06;12.05;;;2.78;;
77359;SDS011;66426;51.454;7.266;2023-03-05T03:50:08;7.18;;;2.40;;
77359;SDS011;66426;51.454;7.266;2023-03-05T03:51:09;6.70;;;2.30;;
77359;SDS011;66426;51.454;7.266;2023-03-05T03:52:09;5.93;;;2.13;;
77359;SDS011;66426;51.454;7.266;2023-03-05T03:53:11;6.90;;;2.20;;
77359;SDS011;66426;51.454;7.266;2023-03-05T03:54:13;3.67;;;1.90;;
77359;SDS011;66426;51.454;7.266;2023-03-05T03:55:14;3.30;;;1.80;;
77359;SDS011;66426;51.454;7.266;2023-03-05T03:56:15;8.88;;;2.13;;
77359;SDS011;66426;51.454;7.266;2023-03-05T03:57:16;6.03;;;2.17;;
77359;SDS011;66426;51.454;7.266;2023-03-05T03:58:17;6.85;;;1.98;;
77359;SDS011;66426;51.454;7.266;2023-03-05T03:59:17;5.03;;;1.83;;
77359;SDS011;66426;51.454;7.266;2023-03-05T04:00:18;5.43;;;2.00;;
77359;SDS011;66426;51.454;7.266;2023-03-05T04:01:19;5.82;;;1.80;;
77359;SDS011;66426;51.454;7.266;2023-03-05T04:02:20;6.32;;;2.35;;
77359;SDS011;66426;51.454;7.266;2023-03-05T04:03:21;4.45;;;1.88;;
77359;SDS011;66426;51.454;7.266;2023-03-05T04:04:22;7.75;;;2.33;;
77359;SDS011;66426;51.454;7.266;2023-03-05T04:05:22;4.78;;;1.92;;
77359;SDS011;66426;51.454;7.266;2023-03-05T04:06:23;6.28;;;1.95;;
77359;SDS011;66426;51.454;7.266;2023-03-05T04:07:24;4.63;;;1.65;;
77359;SDS011;66426;51.454;7.266;2023-03-05T04:08:26;4.97;;;1.70;;
77359;SDS011;66426;51.454;7.266;2023-03-05T04:09:27;3.95;;;1.60;;
77359;SDS011;66426;51.454;7.266;2023-03-05T04:10:27;4.90;;;2.03;;
77359;SDS011;66426;51.454;7.266;2023-03-05T04:11:28;5.63;;;1.83;;
77359;SDS011;66426;51.454;7.266;2023-03-05T04:12:29;6.32;;;2.00;;
77359;SDS011;66426;51.454;7.266;2023-03-05T04:13:30;5.55;;;1.77;;
77359;SDS011;66426;51.454;7.266;2023-03-05T04:14:30;3.63;;;1.63;;
77359;SDS011;66426;51.454;7.266;2023-03-05T04:15:31;5.88;;;1.70;;
77359;SDS011;66426;51.454;7.266;2023-03-05T04:16:32;11.88;;;2.10;;
77359;SDS011;66426;51.454;7.266;2023-03-05T04:17:33;6.10;;;1.80;;
77359;SDS011;66426;51.454;7.266;2023-03-05T04:18:33;5.88;;;1.70;;
77359;SDS011;66426;51.454;7.266;2023-03-05T04:19:34;6.45;;;1.88;;
77359;SDS011;66426;51.454;7.266;2023-03-05T04:20:35;6.68;;;2.03;;
77359;SDS011;66426;51.454;7.266;2023-03-05T04:21:35;3.95;;;1.60;;
77359;SDS011;66426;51.454;7.266;2023-03-05T04:22:36;4.20;;;2.00;;
77359;SDS011;66426;51.454;7.266;2023-03-05T04:23:38;10.48;;;2.10;;
77359;SDS011;66426;51.454;7.266;2023-03-05T04:24:39;7.70;;;2.30;;
77359;SDS011;66426;51.454;7.266;2023-03-05T04:25:40;6.50;;;2.00;;
77359;SDS011;66426;51.454;7.266;2023-03-05T04:26:41;5.82;;;2.10;;
77359;SDS011;66426;51.454;7.266;2023-03-05T04:27:42;7.45;;;2.15;;
77359;SDS011;66426;51.454;7.266;2023-03-05T04:28:42;6.10;;;2.20;;
77359;SDS011;66426;51.454;7.266;2023-03-05T04:29:43;8.07;;;2.78;;
77359;SDS011;66426;51.454;7.266;2023-03-05T04:30:44;9.88;;;2.45;;
77359;SDS011;66426;51.454;7.266;2023-03-05T04:31:45;6.45;;;2.42;;
77359;SDS011;66426;51.454;7.266;2023-03-05T04:32:45;8.40;;;2.55;;
77359;SDS011;66426;51.454;7.266;2023-03-05T04:33:46;5.78;;;2.28;;
77359;SDS011;66426;51.454;7.266;2023-03-05T04:34:47;10.05;;;2.38;;
77359;SDS011;66426;51.454;7.266;2023-03-05T04:35:49;7.20;;;2.25;;
77359;SDS011;66426;51.454;7.266;2023-03-05T04:36:49;7.15;;;2.03;;
77359;SDS011;66426;51.454;7.266;2023-03-05T04:37:50;5.50;;;2.10;;
77359;SDS011;66426;51.454;7.266;2023-03-05T04:38:52;5.07;;;2.22;;
77359;SDS011;66426;51.454;7.266;2023-03-05T04:39:53;4.25;;;2.30;;
77359;SDS011;66426;51.454;7.266;2023-03-05T04:40:54;7.80;;;2.42;;
77359;SDS011;66426;51.454;7.266;2023-03-05T04:41:54;9.95;;;2.92;;
77359;SDS011;66426;51.454;7.266;2023-03-05T04:42:55;7.53;;;2.35;;
77359;SDS011;66426;51.454;7.266;2023-03-05T04:43:56;6.38;;;2.45;;
77359;SDS011;66426;51.454;7.266;2023-03-05T04:44:56;6.75;;;2.58;;
77359;SDS011;66426;51.454;7.266;2023-03-05T04:45:57;7.55;;;1.90;;
77359;SDS011;66426;51.454;7.266;2023-03-05T04:46:58;6.00;;;2.60;;
77359;SDS011;66426;51.454;7.266;2023-03-05T04:47:59;11.98;;;3.00;;
77359;SDS011;66426;51.454;7.266;2023-03-05T04:48:59;4.97;;;2.45;;
77359;SDS011;66426;51.454;7.266;2023-03-05T04:50:00;4.93;;;2.25;;
77359;SDS011;66426;51.454;7.266;2023-03-05T04:51:01;6.63;;;2.90;;
77359;SDS011;66426;51.454;7.266;2023-03-05T04:52:01;5.57;;;2.53;;
77359;SDS011;66426;51.454;7.266;2023-03-05T04:53:03;5.43;;;2.50;;
77359;SDS011;66426;51.454;7.266;2023-03-05T04:54:05;10.30;;;2.47;;
77359;SDS011;66426;51.454;7.266;2023-03-05T04:55:06;12.57;;;3.30;;
77359;SDS011;66426;51.454;7.266;2023-03-05T04:56:07;6.85;;;2.28;;
77359;SDS011;66426;51.454;7.266;2023-03-05T04:57:07;7.47;;;2.20;;
77359;SDS011;66426;51.454;7.266;2023-03-05T04:58:08;7.80;;;2.35;;
77359;SDS011;66426;51.454;7.266;2023-03-05T04:59:09;7.32;;;2.50;;
77359;SDS011;66426;51.454;7.266;2023-03-05T05:00:10;7.15;;;2.30;;
77359;SDS011;66426;51.454;7.266;2023-03-05T05:01:13;8.30;;;2.50;;
77359;SDS011;66426;51.454;7.266;2023-03-05T05:02:14;10.07;;;2.40;;
77359;SDS011;66426;51.454;7.266;2023-03-05T05:03:15;6.93;;;2.50;;
77359;SDS011;66426;51.454;7.266;2023-03-05T05:04:15;8.60;;;2.50;;
77359;SDS011;66426;51.454;7.266;2023-03-05T05:05:17;7.68;;;2.72;;
77359;SDS011;66426;51.454;7.266;2023-03-05T05:06:18;7.18;;;3.45;;
77359;SDS011;66426;51.454;7.266;2023-03-05T05:07:19;8.73;;;2.55;;
77359;SDS011;66426;51.454;7.266;2023-03-05T05:08:19;9.68;;;3.20;;
77359;SDS011;66426;51.454;7.266;2023-03-05T05:09:21;13.10;;;3.47;;
77359;SDS011;66426;51.454;7.266;2023-03-05T05:10:23;7.38;;;3.10;;
77359;SDS011;66426;51.454;7.266;2023-03-05T05:11:24;12.18;;;3.47;;
77359;SDS011;66426;51.454;7.266;2023-03-05T05:12:26;9.40;;;3.28;;
77359;SDS011;66426;51.454;7.266;2023-03-05T05:13:28;8.40;;;3.25;;
77359;SDS011;66426;51.454;7.266;2023-03-05T05:14:28;11.38;;;3.83;;
77359;SDS011;66426;51.454;7.266;2023-03-05T05:15:29;11.85;;;4.00;;
77359;SDS011;66426;51.454;7.266;2023-03-05T05:16:31;12.15;;;4.35;;
77359;SDS011;66426;51.454;7.266;2023-03-05T05:17:32;9.13;;;3.95;;
77359;SDS011;66426;51.454;7.266;2023-03-05T05:18:33;10.07;;;3.72;;
77359;SDS011;66426;51.454;7.266;2023-03-05T05:19:34;13.93;;;5.47;;
77359;SDS011;66426;51.454;7.266;2023-03-05T05:20:35;11.32;;;4.18;;
77359;SDS011;66426;51.454;7.266;2023-03-05T05:21:35;12.45;;;4.90;;
77359;SDS011;66426;51.454;7.266;2023-03-05T05:22:36;13.13;;;4.78;;
77359;SDS011;66426;51.454;7.266;2023-03-05T05:23:37;13.50;;;5.00;;
77359;SDS011;66426;51.454;7.266;2023-03-05T05:24:39;13.02;;;4.78;;
77359;SDS011;66426;51.454;7.266;2023-03-05T05:25:40;14.65;;;4.93;;
77359;SDS011;66426;51.454;7.266;2023-03-05T05:26:40;14.50;;;5.13;;
77359;SDS011;66426;51.454;7.266;2023-03-05T05:27:41;18.95;;;5.30;;
77359;SDS011;66426;51.454;7.266;2023-03-05T05:28:42;12.73;;;5.78;;
77359;SDS011;66426;51.454;7.266;2023-03-05T05:29:43;15.23;;;5.65;;
77359;SDS011;66426;51.454;7.266;2023-03-05T05:30:45;14.45;;;4.93;;
77359;SDS011;66426;51.454;7.266;2023-03-05T05:31:46;14.00;;;5.82;;
77359;SDS011;66426;51.454;7.266;2023-03-05T05:32:47;16.17;;;6.35;;
77359;SDS011;66426;51.454;7.266;2023-03-05T05:33:48;14.35;;;6.32;;
77359;SDS011;66426;51.454;7.266;2023-03-05T05:34:52;16.83;;;6.85;;
77359;SDS011;66426;51.454;7.266;2023-03-05T05:35:52;16.58;;;5.97;;
77359;SDS011;66426;51.454;7.266;2023-03-05T05:36:53;16.13;;;6.25;;
77359;SDS011;66426;51.454;7.266;2023-03-05T05:37:54;17.35;;;6.10;;
77359;SDS011;66426;51.454;7.266;2023-03-05T05:38:55;15.73;;;6.13;;
77359;SDS011;66426;51.454;7.266;2023-03-05T05:39:57;14.70;;;6.10;;
77359;SDS011;66426;51.454;7.266;2023-03-05T05:41:02;13.65;;;5.95;;
77359;SDS011;66426;51.454;7.266;2023-03-05T05:42:03;18.33;;;6.53;;
77359;SDS011;66426;51.454;7.266;2023-03-05T05:43:04;17.45;;;6.53;;
77359;SDS011;66426;51.454;7.266;2023-03-05T05:44:05;17.48;;;6.35;;
77359;SDS011;66426;51.454;7.266;2023-03-05T05:45:06;15.63;;;5.85;;
77359;SDS011;66426;51.454;7.266;2023-03-05T05:46:07;15.85;;;6.07;;
77359;SDS011;66426;51.454;7.266;2023-03-05T05:47:08;13.50;;;6.03;;
77359;SDS011;66426;51.454;7.266;2023-03-05T05:48:09;14.10;;;6.28;;
77359;SDS011;66426;51.454;7.266;2023-03-05T05:49:10;15.13;;;5.78;;
77359;SDS011;66426;51.454;7.266;2023-03-05T05:50:11;19.73;;;6.78;;
77359;SDS011;66426;51.454;7.266;2023-03-05T05:51:12;17.02;;;6.40;;
77359;SDS011;66426;51.454;7.266;2023-03-05T05:52:14;16.20;;;6.18;;
77359;SDS011;66426;51.454;7.266;2023-03-05T05:53:15;17.27;;;6.95;;
77359;SDS011;66426;51.454;7.266;2023-03-05T05:54:15;18.15;;;6.40;;
77359;SDS011;66426;51.454;7.266;2023-03-05T05:55:17;18.60;;;6.57;;
77359;SDS011;66426;51.454;7.266;2023-03-05T05:56:19;15.38;;;6.18;;
77359;SDS011;66426;51.454;7.266;2023-03-05T05:57:19;15.23;;;6.38;;
77359;SDS011;66426;51.454;7.266;2023-03-05T05:58:20;17.52;;;6.90;;
77359;SDS011;66426;51.454;7.266;2023-03-05T05:59:21;14.10;;;6.53;;
77359;SDS011;66426;51.454;7.266;2023-03-05T06:00:22;13.48;;;6.25;;
77359;SDS011;66426;51.454;7.266;2023-03-05T06:01:24;17.23;;;6.97;;
77359;SDS011;66426;51.454;7.266;2023-03-05T06:02:25;18.77;;;7.03;;
77359;SDS011;66426;51.454;7.266;2023-03-05T06:03:27;17.25;;;6.32;;
77359;SDS011;66426;51.454;7.266;2023-03-05T06:04:27;14.65;;;6.90;;
77359;SDS011;66426;51.454;7.266;2023-03-05T06:05:28;17.98;;;6.47;;
77359;SDS011;66426;51.454;7.266;2023-03-05T06:06:29;17.60;;;6.47;;
77359;SDS011;66426;51.454;7.266;2023-03-05T06:07:30;17.45;;;6.30;;